Terminal Aerodrome Forecast
Issued by NWS

Home | Current Version | Previous Version | Text Only | Print | Product List | Glossary On
Versions: 1 2 3 4 5 6 7 8 9 10 11 12 13 14
000
FTAK31 PAJN 301700
TAFASI
TAF
PASI 301735Z 3018/0118 29004KT P6SM SCT020 BKN040
      TEMPO 3018/3020 3SM -SHRA BKN015 OVC025
     FM302100 22008KT P6SM BKN050 BKN100
     FM010600 26005KT P6SM BKN025 OVC050=

USA.gov is the U.S. government's official web portal to all federal, state and local government web resources and services.